createdAt,value
2022-11-24T00:01:11.670Z,3.60
2022-11-24T00:03:38.612Z,3.33
2022-11-24T00:06:07.553Z,3.63
2022-11-24T00:08:35.656Z,3.58
2022-11-24T00:11:10.229Z,3.45
2022-11-24T00:13:40.249Z,3.40
2022-11-24T00:16:19.304Z,3.58
2022-11-24T00:18:47.823Z,4.77
2022-11-24T00:21:16.662Z,3.67
2022-11-24T00:23:44.460Z,3.38
2022-11-24T00:26:14.541Z,2.97
2022-11-24T00:28:42.417Z,3.90
2022-11-24T00:31:21.157Z,3.00
2022-11-24T00:33:49.518Z,3.30
2022-11-24T00:36:17.597Z,3.15
2022-11-24T00:38:45.231Z,3.53
2022-11-24T00:41:12.477Z,3.20
2022-11-24T00:43:39.166Z,3.00
2022-11-24T00:46:06.231Z,3.42
2022-11-24T00:48:33.019Z,3.17
2022-11-24T00:51:05.754Z,2.80
2022-11-24T00:53:32.433Z,3.30
2022-11-24T00:55:59.204Z,3.97
2022-11-24T00:58:26.002Z,3.40
2022-11-24T01:00:53.154Z,4.32
2022-11-24T01:03:21.034Z,3.65
2022-11-24T01:05:48.177Z,3.08
2022-11-24T01:08:14.962Z,3.57
2022-11-24T01:10:41.571Z,3.75
2022-11-24T01:13:08.276Z,3.40
2022-11-24T01:15:36.236Z,3.55
2022-11-24T01:18:04.044Z,3.67
2022-11-24T01:20:31.451Z,3.60
2022-11-24T01:22:58.342Z,3.25
2022-11-24T01:25:25.064Z,4.15
2022-11-24T01:27:51.767Z,3.42
2022-11-24T01:30:18.513Z,4.10
2022-11-24T01:32:45.098Z,3.00
2022-11-24T01:35:11.703Z,3.63
2022-11-24T01:37:38.295Z,3.53
2022-11-24T01:40:05.712Z,3.10
2022-11-24T01:42:52.495Z,3.03
2022-11-24T01:45:31.542Z,2.97
2022-11-24T01:47:59.014Z,2.75
2022-11-24T01:50:25.775Z,3.40
2022-11-24T01:52:56.658Z,3.25
2022-11-24T01:55:27.698Z,2.97
2022-11-24T01:58:02.382Z,2.83
2022-11-24T02:00:29.209Z,3.15
2022-11-24T02:02:58.769Z,2.90
2022-11-24T02:05:32.701Z,2.53
2022-11-24T02:08:01.586Z,2.53
2022-11-24T02:10:29.017Z,2.70
2022-11-24T02:12:57.717Z,3.17
2022-11-24T02:15:24.505Z,2.28
2022-11-24T02:17:51.149Z,2.78
2022-11-24T02:20:18.292Z,2.70
2022-11-24T02:22:56.564Z,2.47
2022-11-24T02:25:48.796Z,3.28
2022-11-24T02:28:19.310Z,2.60
2022-11-24T02:30:46.586Z,3.45
2022-11-24T02:33:13.814Z,2.40
2022-11-24T02:35:40.659Z,2.43
2022-11-24T02:38:07.469Z,2.63
2022-11-24T02:40:34.234Z,2.67
2022-11-24T02:43:07.826Z,2.50
2022-11-24T02:45:34.468Z,2.15
2022-11-24T02:48:01.091Z,2.60
2022-11-24T02:50:27.777Z,2.72
2022-11-24T02:52:54.416Z,2.42
2022-11-24T02:55:21.157Z,2.55
2022-11-24T02:57:47.850Z,2.33
2022-11-24T03:00:15.367Z,2.43
2022-11-24T03:02:42.172Z,2.53
2022-11-24T03:05:09.326Z,3.13
2022-11-24T03:07:35.966Z,2.80
2022-11-24T03:10:02.628Z,2.58
2022-11-24T03:12:29.248Z,2.73
2022-11-24T03:14:55.882Z,2.45
2022-11-24T03:17:22.511Z,2.65
2022-11-24T03:19:49.161Z,2.42
2022-11-24T03:22:15.798Z,2.80
2022-11-24T03:24:42.424Z,2.93
2022-11-24T03:27:09.034Z,2.33
2022-11-24T03:29:35.693Z,2.25
2022-11-24T03:32:02.642Z,1.95
2022-11-24T03:34:29.239Z,2.60
2022-11-24T03:36:56.112Z,2.27
2022-11-24T03:39:22.957Z,2.47
2022-11-24T03:41:51.329Z,2.50
2022-11-24T03:44:18.287Z,2.50
2022-11-24T03:46:45.013Z,2.30
2022-11-24T03:49:11.758Z,3.33
2022-11-24T03:51:38.381Z,2.78
2022-11-24T03:54:05.079Z,2.72
2022-11-24T03:56:31.678Z,2.75
2022-11-24T03:58:58.311Z,2.45
2022-11-24T04:01:24.958Z,2.67
2022-11-24T04:03:51.667Z,2.47
2022-11-24T04:06:18.267Z,3.10
2022-11-24T04:08:44.889Z,2.67
2022-11-24T04:11:31.476Z,2.50
2022-11-24T04:13:58.197Z,2.60
2022-11-24T04:16:24.838Z,2.58
2022-11-24T04:18:54.877Z,2.50
2022-11-24T04:21:21.566Z,2.58
2022-11-24T04:23:48.143Z,2.75
2022-11-24T04:26:15.003Z,2.73
2022-11-24T04:28:41.564Z,2.55
2022-11-24T04:31:08.144Z,2.70
2022-11-24T04:33:34.954Z,2.70
2022-11-24T04:36:01.588Z,2.45
2022-11-24T04:39:23.201Z,3.30
2022-11-24T04:41:14.700Z,2.45
2022-11-24T04:43:41.260Z,2.75
2022-11-24T04:46:10.862Z,2.60
2022-11-24T04:48:37.512Z,2.55
2022-11-24T04:51:05.758Z,2.60
2022-11-24T04:53:32.322Z,3.42
2022-11-24T04:55:59.592Z,3.00
2022-11-24T04:58:26.164Z,2.95
2022-11-24T05:00:52.780Z,2.85
2022-11-24T05:03:19.385Z,2.37
2022-11-24T05:05:45.947Z,3.03
2022-11-24T05:08:12.527Z,3.08
2022-11-24T05:10:40.009Z,2.60
2022-11-24T05:13:09.964Z,2.60
2022-11-24T05:15:41.813Z,2.57
2022-11-24T05:18:13.359Z,2.05
2022-11-24T05:20:40.236Z,2.15
2022-11-24T05:23:08.476Z,1.80
2022-11-24T05:25:35.338Z,1.88
2022-11-24T05:28:09.839Z,2.00
2022-11-24T05:30:38.566Z,1.98
2022-11-24T05:33:12.215Z,1.50
2022-11-24T05:35:38.782Z,1.50
2022-11-24T05:38:05.411Z,1.27
2022-11-24T05:40:32.402Z,1.20
2022-11-24T05:42:59.040Z,1.15
2022-11-24T05:45:25.761Z,1.08
2022-11-24T05:47:53.182Z,0.90
2022-11-24T05:50:22.374Z,0.82
2022-11-24T05:52:49.705Z,1.00
2022-11-24T05:55:19.298Z,0.80
2022-11-24T05:57:46.121Z,0.85
2022-11-24T06:00:13.840Z,0.90
2022-11-24T06:02:40.955Z,1.00
2022-11-24T06:05:08.300Z,0.70
2022-11-24T06:07:35.097Z,0.90
2022-11-24T06:10:01.703Z,1.20
2022-11-24T06:12:28.289Z,0.98
2022-11-24T06:14:54.875Z,0.90
2022-11-24T06:17:21.535Z,1.33
2022-11-24T06:19:50.108Z,1.15
2022-11-24T06:22:18.743Z,1.48
2022-11-24T06:24:46.412Z,1.27
2022-11-24T06:27:14.015Z,1.27
2022-11-24T06:29:40.634Z,1.37
2022-11-24T06:32:07.273Z,1.65
2022-11-24T06:34:34.264Z,1.38
2022-11-24T06:37:01.056Z,1.55
2022-11-24T06:39:27.778Z,1.80
2022-11-24T06:41:54.366Z,1.60
2022-11-24T06:44:21.113Z,1.60
2022-11-24T06:46:47.720Z,2.00
2022-11-24T06:49:14.482Z,2.13
2022-11-24T06:51:41.938Z,1.88
2022-11-24T06:54:15.439Z,1.90
2022-11-24T06:56:42.025Z,2.03
2022-11-24T06:59:17.411Z,2.50
2022-11-24T07:01:44.587Z,2.40
2022-11-24T07:04:11.364Z,2.40
2022-11-24T07:06:39.943Z,2.70
2022-11-24T07:09:06.850Z,3.03
2022-11-24T07:11:33.497Z,3.40
2022-11-24T07:14:00.387Z,3.17
2022-11-24T07:16:27.963Z,4.18
2022-11-24T07:18:55.412Z,4.53
2022-11-24T07:21:23.718Z,4.45
2022-11-24T07:23:55.888Z,4.85
2022-11-24T07:26:23.971Z,4.97
2022-11-24T07:28:51.049Z,5.07
2022-11-24T07:31:20.541Z,5.63
2022-11-24T07:33:52.414Z,5.47
2022-11-24T07:36:19.442Z,5.97
2022-11-24T07:38:46.722Z,6.05
2022-11-24T07:41:14.637Z,5.80
2022-11-24T07:43:41.840Z,6.17
2022-11-24T07:46:11.942Z,6.32
2022-11-24T07:48:38.579Z,6.53
2022-11-24T07:51:06.604Z,6.60
2022-11-24T07:53:34.071Z,7.15
2022-11-24T07:56:02.548Z,6.30
2022-11-24T07:58:32.835Z,6.32
2022-11-24T08:01:00.838Z,6.57
2022-11-24T08:03:27.851Z,6.53
2022-11-24T08:06:29.070Z,6.80
2022-11-24T08:08:43.167Z,6.10
2022-11-24T08:11:12.447Z,6.13
2022-11-24T08:13:39.861Z,5.65
2022-11-24T08:16:08.612Z,5.45
2022-11-24T08:18:36.595Z,6.13
2022-11-24T08:21:04.003Z,5.60
2022-11-24T08:23:31.601Z,5.60
2022-11-24T08:26:04.133Z,6.00
2022-11-24T08:28:31.746Z,5.78
2022-11-24T08:31:06.451Z,6.30
2022-11-24T08:33:33.051Z,5.83
2022-11-24T08:36:14.460Z,5.82
2022-11-24T08:38:41.907Z,6.43
2022-11-24T08:41:17.219Z,6.18
2022-11-24T08:43:44.326Z,5.95
2022-11-24T08:46:19.349Z,5.67
2022-11-24T08:48:54.124Z,5.57
2022-11-24T08:51:23.485Z,4.90
2022-11-24T08:53:55.301Z,5.63
2022-11-24T08:56:21.929Z,5.32
2022-11-24T08:58:48.591Z,5.23
2022-11-24T09:01:17.967Z,5.30
2022-11-24T09:03:50.677Z,5.35
2022-11-24T09:06:22.533Z,5.35
2022-11-24T09:08:49.158Z,4.80
2022-11-24T09:11:17.184Z,4.70
2022-11-24T09:13:44.482Z,5.13
2022-11-24T09:16:14.243Z,4.38
2022-11-24T09:18:40.946Z,4.28
2022-11-24T09:21:11.991Z,3.92
2022-11-24T09:23:39.480Z,3.67
2022-11-24T09:26:08.284Z,4.13
2022-11-24T09:28:35.303Z,3.70
2022-11-24T09:31:07.634Z,3.60
2022-11-24T09:33:35.026Z,3.17
2022-11-24T09:36:01.844Z,3.83
2022-11-24T09:38:28.923Z,3.35
2022-11-24T09:40:55.917Z,3.30
2022-11-24T09:43:45.853Z,3.40
2022-11-24T09:46:49.554Z,2.75
2022-11-24T09:49:33.128Z,2.90
2022-11-24T09:52:07.707Z,3.00
2022-11-24T09:54:37.186Z,3.15
2022-11-24T09:57:06.249Z,2.95
2022-11-24T09:59:33.174Z,3.00
2022-11-24T10:02:00.366Z,2.50
2022-11-24T10:04:39.476Z,2.75
2022-11-24T10:07:28.153Z,2.75
2022-11-24T10:10:25.029Z,2.65
2022-11-24T10:13:32.808Z,2.65
2022-11-24T10:16:22.684Z,2.80
2022-11-24T10:19:09.938Z,2.20
2022-11-24T10:22:03.560Z,2.53
2022-11-24T10:24:54.398Z,2.20
2022-11-24T10:27:30.505Z,2.35
2022-11-24T10:29:57.494Z,2.93
2022-11-24T10:32:35.769Z,2.55
2022-11-24T10:35:21.831Z,2.15
2022-11-24T10:38:13.759Z,2.92
2022-11-24T10:40:57.142Z,2.00
2022-11-24T10:43:27.580Z,2.50
2022-11-24T10:45:59.658Z,2.85
2022-11-24T10:48:30.142Z,2.80
2022-11-24T10:51:37.633Z,2.42
2022-11-24T10:54:17.920Z,2.30
2022-11-24T10:56:46.364Z,2.40
2022-11-24T10:59:40.231Z,2.85
2022-11-24T11:02:33.616Z,2.60
2022-11-24T11:05:25.968Z,2.17
2022-11-24T11:08:26.234Z,3.10
2022-11-24T11:11:21.265Z,2.90
2022-11-24T11:13:52.287Z,2.50
2022-11-24T11:16:32.726Z,3.13
2022-11-24T11:19:01.571Z,3.45
2022-11-24T11:21:39.042Z,3.00
2022-11-24T11:24:17.995Z,2.87
2022-11-24T11:26:44.844Z,2.63
2022-11-24T11:35:12.505Z,2.67
2022-11-24T11:37:39.204Z,3.30
2022-11-24T11:40:15.974Z,3.75
2022-11-24T11:43:02.527Z,3.53
2022-11-24T11:45:35.948Z,3.47
2022-11-24T11:48:03.012Z,3.42
2022-11-24T11:51:21.262Z,3.23
2022-11-24T11:53:53.335Z,3.70
2022-11-24T11:56:30.386Z,3.92
2022-11-24T11:59:11.818Z,2.92
2022-11-24T12:02:14.685Z,3.30
2022-11-24T12:04:48.633Z,3.93
2022-11-24T12:07:34.246Z,4.65
2022-11-24T12:10:21.083Z,3.65
2022-11-24T12:12:59.535Z,4.10
2022-11-24T12:15:46.433Z,3.85
2022-11-24T12:18:55.365Z,3.70
2022-11-24T12:21:27.776Z,3.95
2022-11-24T12:24:42.118Z,3.60
2022-11-24T12:27:31.282Z,3.28
2022-11-24T12:30:11.699Z,3.10
2022-11-24T12:33:08.437Z,3.33
2022-11-24T12:35:40.761Z,3.47
2022-11-24T12:38:50.057Z,3.47
2022-11-24T12:44:30.684Z,3.65
2022-11-24T12:47:10.186Z,3.27
2022-11-24T12:49:42.534Z,2.90
2022-11-24T12:52:23.515Z,3.40
2022-11-24T12:54:50.109Z,3.15
2022-11-24T12:57:40.007Z,3.60
2022-11-24T13:00:38.071Z,3.17
2022-11-24T13:03:35.634Z,3.10
2022-11-24T13:06:43.111Z,3.22
2022-11-24T13:09:13.668Z,3.03
2022-11-24T13:11:45.722Z,3.60
2022-11-24T13:14:28.534Z,3.17
2022-11-24T13:17:28.769Z,3.83
2022-11-24T13:19:46.310Z,3.20
2022-11-24T13:22:25.591Z,3.53
2022-11-24T13:25:26.182Z,3.60
2022-11-24T13:27:55.325Z,3.03
2022-11-24T13:30:34.125Z,2.97
2022-11-24T13:33:16.486Z,3.17
2022-11-24T13:36:02.409Z,3.17
2022-11-24T13:38:51.221Z,3.25
2022-11-24T13:41:33.094Z,3.60
2022-11-24T13:44:15.069Z,3.55
2022-11-24T13:47:06.331Z,3.13
2022-11-24T13:49:40.632Z,3.10
2022-11-24T13:52:44.908Z,3.13
2022-11-24T13:55:11.734Z,3.10
2022-11-24T13:57:53.956Z,3.22
2022-11-24T14:00:31.778Z,3.25
2022-11-24T14:03:06.724Z,3.33
2022-11-24T14:05:45.669Z,3.40
2022-11-24T14:08:19.922Z,3.60
2022-11-24T14:10:46.480Z,3.15
2022-11-24T14:13:18.544Z,3.17
2022-11-24T14:15:58.099Z,2.80
2022-11-24T14:18:25.130Z,3.55
2022-11-24T14:21:01.358Z,3.00
2022-11-24T14:23:36.791Z,3.03
2022-11-24T14:26:22.070Z,3.15
2022-11-24T14:28:58.047Z,2.85
2022-11-24T14:31:33.729Z,3.13
2022-11-24T14:34:24.609Z,3.50
2022-11-24T14:36:55.155Z,3.03
2022-11-24T14:39:30.739Z,3.22
2022-11-24T14:42:03.894Z,2.80
2022-11-24T14:44:35.045Z,3.40
2022-11-24T14:47:07.692Z,3.40
2022-11-24T14:49:40.069Z,2.58
2022-11-24T14:52:12.908Z,3.63
2022-11-24T14:54:55.746Z,2.72
2022-11-24T14:57:35.610Z,2.75
2022-11-24T15:00:27.865Z,2.30
2022-11-24T15:03:01.074Z,2.50
2022-11-24T15:06:15.900Z,2.75
2022-11-24T15:08:50.173Z,3.10
2022-11-24T15:11:17.216Z,2.47
2022-11-24T15:13:55.525Z,3.63
2022-11-24T15:16:25.331Z,2.80
2022-11-24T15:19:01.601Z,2.30
2022-11-24T15:21:35.942Z,2.97
2022-11-24T15:24:17.446Z,2.63
2022-11-24T15:26:45.258Z,3.03
2022-11-24T15:29:22.522Z,3.17
2022-11-24T15:31:52.873Z,2.55
2022-11-24T15:34:29.545Z,2.72
2022-11-24T15:36:59.384Z,2.67
2022-11-24T15:39:26.064Z,3.03
2022-11-24T15:41:53.066Z,2.90
2022-11-24T15:44:21.042Z,3.30
2022-11-24T15:46:48.045Z,2.80
2022-11-24T15:49:22.102Z,2.40
2022-11-24T15:51:50.560Z,3.17
2022-11-24T15:54:25.876Z,3.22
2022-11-24T15:56:58.530Z,2.70
2022-11-24T15:59:28.348Z,3.22
2022-11-24T16:01:58.573Z,2.83
2022-11-24T16:04:26.635Z,3.37
2022-11-24T16:06:56.682Z,2.55
2022-11-24T16:09:23.291Z,2.47
2022-11-24T16:11:49.935Z,2.70
2022-11-24T16:14:16.644Z,2.53
2022-11-24T16:16:43.411Z,2.70
2022-11-24T16:19:10.652Z,3.15
2022-11-24T16:21:37.200Z,3.97
2022-11-24T16:24:03.914Z,3.00
2022-11-24T16:26:30.457Z,2.60
2022-11-24T16:28:57.060Z,2.40
2022-11-24T16:37:07.767Z,3.35
2022-11-24T16:39:35.131Z,3.25
2022-11-24T16:42:04.399Z,2.90
2022-11-24T16:44:36.693Z,3.05
2022-11-24T16:47:05.626Z,2.70
2022-11-24T16:49:35.010Z,3.30
2022-11-24T16:52:17.057Z,3.10
2022-11-24T16:54:48.233Z,2.50
2022-11-24T16:59:59.276Z,2.80
2022-11-24T17:02:30.189Z,3.08
2022-11-24T17:05:18.577Z,3.40
2022-11-24T17:07:57.910Z,3.27
2022-11-24T17:13:42.198Z,3.33
2022-11-24T17:16:33.392Z,3.25
2022-11-24T17:19:29.173Z,2.85
2022-11-24T17:22:01.304Z,2.90
2022-11-24T17:24:50.097Z,3.22
2022-11-24T17:32:59.845Z,3.28
2022-11-24T17:35:28.047Z,2.90
2022-11-24T17:41:26.672Z,3.20
2022-11-24T17:43:56.948Z,3.33
2022-11-24T17:46:40.350Z,2.95
2022-11-24T17:49:10.688Z,2.90
2022-11-24T17:51:39.301Z,3.58
2022-11-24T17:54:31.210Z,3.58
2022-11-24T17:56:55.281Z,2.70
2022-11-24T17:59:25.714Z,3.42
2022-11-24T18:02:06.267Z,3.17
2022-11-24T18:05:13.972Z,3.13
2022-11-24T18:07:47.927Z,3.35
2022-11-24T18:10:14.995Z,3.00
2022-11-24T18:12:41.695Z,3.42
2022-11-24T18:15:19.030Z,3.80
2022-11-24T18:18:07.478Z,2.95
2022-11-24T18:23:18.142Z,3.17
2022-11-24T18:26:10.656Z,3.45
2022-11-24T18:29:09.698Z,4.07
2022-11-24T18:31:44.233Z,3.03
2022-11-24T18:34:11.554Z,3.72
2022-11-24T18:36:53.753Z,3.30
2022-11-24T18:39:20.923Z,3.25
2022-11-24T18:41:47.718Z,3.00
2022-11-24T18:44:14.601Z,3.20
2022-11-24T18:46:41.601Z,3.15
2022-11-24T18:49:08.265Z,2.78
2022-11-24T18:51:51.614Z,3.20
2022-11-24T18:54:25.112Z,3.73
2022-11-24T18:56:55.802Z,3.53
2022-11-24T18:59:30.797Z,3.17
2022-11-24T19:01:58.234Z,2.47
2022-11-24T19:04:26.188Z,2.83
2022-11-24T19:07:00.243Z,2.83
2022-11-24T19:09:36.412Z,2.72
2022-11-24T19:12:12.381Z,2.78
2022-11-24T19:14:40.935Z,3.05
2022-11-24T19:17:08.258Z,2.95
2022-11-24T19:19:36.981Z,3.07
2022-11-24T19:22:15.455Z,3.22
2022-11-24T19:24:57.794Z,3.30
2022-11-24T19:27:33.738Z,2.75
2022-11-24T19:30:08.588Z,3.13
2022-11-24T19:32:40.651Z,2.47
2022-11-24T19:35:24.386Z,2.90
2022-11-24T19:38:01.055Z,2.58
2022-11-24T19:40:33.059Z,2.95
2022-11-24T19:43:00.187Z,3.20
2022-11-24T19:45:28.542Z,2.97
2022-11-24T19:50:41.944Z,3.00
2022-11-24T19:53:41.650Z,3.13
2022-11-24T19:56:35.167Z,2.92
2022-11-24T19:59:04.265Z,2.83
2022-11-24T20:05:17.265Z,3.58
2022-11-24T20:08:15.694Z,3.05
2022-11-24T20:10:58.187Z,2.90
2022-11-24T20:13:28.400Z,3.17
2022-11-24T20:15:56.586Z,2.88
2022-11-24T20:18:40.439Z,2.97
2022-11-24T20:21:18.380Z,3.35
2022-11-24T20:26:44.593Z,3.33
2022-11-24T20:32:01.184Z,2.78
2022-11-24T20:34:33.068Z,3.03
2022-11-24T20:37:02.710Z,3.00
2022-11-24T20:39:29.531Z,3.27
2022-11-24T20:41:56.601Z,2.05
2022-11-24T20:44:24.833Z,2.60
2022-11-24T20:46:53.325Z,2.90
2022-11-24T20:49:27.708Z,3.05
2022-11-24T20:51:59.199Z,2.97
2022-11-24T20:57:26.535Z,2.92
2022-11-24T20:59:55.488Z,3.25
2022-11-24T21:02:25.251Z,2.72
2022-11-24T21:04:53.252Z,3.00
2022-11-24T21:07:20.265Z,3.10
2022-11-24T21:12:34.001Z,2.63
2022-11-24T21:15:10.376Z,3.08
2022-11-24T21:17:39.093Z,3.10
2022-11-24T21:20:06.456Z,2.83
2022-11-24T21:22:33.095Z,2.75
2022-11-24T21:24:59.778Z,2.90
2022-11-24T21:27:28.651Z,2.45
2022-11-24T21:29:55.293Z,3.10
2022-11-24T21:32:21.974Z,2.70
2022-11-24T21:34:48.635Z,2.70
2022-11-24T21:37:15.305Z,2.83
2022-11-24T21:39:44.576Z,2.55
2022-11-24T21:42:11.297Z,2.87
2022-11-24T21:44:37.953Z,2.83
2022-11-24T21:47:04.829Z,2.60
2022-11-24T21:49:31.465Z,2.90
2022-11-24T21:51:58.100Z,2.72
2022-11-24T21:54:24.854Z,2.60
2022-11-24T21:56:52.751Z,2.97
2022-11-24T21:59:25.685Z,2.45
2022-11-24T22:02:34.908Z,2.95
2022-11-24T22:05:23.728Z,2.78
2022-11-24T22:08:07.727Z,3.20
2022-11-24T22:10:59.262Z,2.90
2022-11-24T22:13:27.537Z,3.13
2022-11-24T22:16:05.168Z,2.63
2022-11-24T22:18:44.235Z,3.00
2022-11-24T22:21:18.349Z,2.93
2022-11-24T22:23:45.982Z,2.88
2022-11-24T22:29:27.915Z,2.80
2022-11-24T22:32:10.196Z,3.40
2022-11-24T22:34:42.199Z,3.07
2022-11-24T22:37:11.086Z,2.92
2022-11-24T22:39:54.154Z,3.03
2022-11-24T22:42:22.856Z,3.38
2022-11-24T22:44:50.876Z,3.30
2022-11-24T22:47:17.509Z,2.90
2022-11-24T22:49:47.381Z,3.35
2022-11-24T22:52:14.606Z,3.28
2022-11-24T22:54:41.290Z,3.72
2022-11-24T22:57:08.031Z,2.80
2022-11-24T22:59:34.773Z,3.10
2022-11-24T23:02:01.548Z,3.05
2022-11-24T23:04:31.217Z,2.92
2022-11-24T23:06:57.811Z,3.60
2022-11-24T23:09:24.414Z,2.88
2022-11-24T23:11:51.005Z,3.17
2022-11-24T23:14:17.701Z,2.88
2022-11-24T23:16:44.547Z,2.90
2022-11-24T23:19:11.293Z,2.70
2022-11-24T23:21:38.818Z,2.67
2022-11-24T23:24:06.205Z,2.97
2022-11-24T23:26:36.180Z,3.33
2022-11-24T23:29:04.723Z,3.35
2022-11-24T23:31:31.577Z,3.38
2022-11-24T23:34:00.168Z,3.50
2022-11-24T23:36:27.972Z,3.73
2022-11-24T23:38:54.653Z,2.78
2022-11-24T23:41:23.657Z,3.15
2022-11-24T23:43:52.177Z,3.55
2022-11-24T23:46:20.992Z,3.58
2022-11-24T23:48:48.405Z,3.27
2022-11-24T23:51:20.702Z,3.45
2022-11-24T23:53:47.717Z,3.45
2022-11-24T23:56:23.521Z,3.05
2022-11-24T23:58:50.469Z,3.30
